HST,Max TemperatureF,Mean TemperatureF,Min TemperatureF,Max Dew PointF,MeanDew PointF,Min DewpointF,Max Humidity, Mean Humidity, Min Humidity, Max Sea Level PressureIn, Mean Sea Level PressureIn, Min Sea Level PressureIn, Max VisibilityMiles, Mean VisibilityMiles, Min VisibilityMiles, Max Wind SpeedMPH, Mean Wind SpeedMPH, Max Gust SpeedMPH,PrecipitationIn, CloudCover, Events, WindDirDegrees
2012-12-1,81,74,67,67,65,63,84,76,67,30.07,30.03,29.98,10,10,7,15,7,18,0.00,2,,230
2012-12-2,85,77,69,70,65,60,90,67,44,30.04,29.96,29.88,10,9,5,29,8,35,0.22,3,Rain,228
2012-12-3,80,77,73,72,70,68,87,81,74,30.00,29.94,29.88,10,8,2,17,7,23,0.07,7,Rain,25
2012-12-4,81,75,68,72,67,64,90,76,62,30.10,30.01,29.95,10,8,1,16,5,18,2.85,6,Rain-Thunderstorm,336
2012-12-5,78,74,69,72,70,66,93,85,76,30.13,30.06,29.99,10,9,0,12,5,14,0.45,5,Fog-Rain-Thunderstorm,244
2012-12-6,82,75,67,70,67,63,90,76,62,30.05,29.97,29.90,10,10,10,12,6,15,0.00,4,,121
2012-12-7,82,77,71,70,68,66,87,73,58,30.01,29.93,29.85,10,10,8,15,7,21,0.02,4,Rain,219
2012-12-8,82,77,71,70,68,66,90,76,62,30.00,29.96,29.90,10,10,7,24,11,29,0.01,6,Rain,68
2012-12-9,81,78,75,69,67,67,82,75,67,30.01,29.96,29.91,10,10,10,24,19,29,T,5,,92
2012-12-10,81,78,75,68,66,63,79,69,58,30.09,30.02,29.97,10,10,10,28,20,32,0.00,5,,78
2012-12-11,79,76,73,68,65,63,79,71,62,30.14,30.10,30.03,10,10,3,29,18,35,0.02,5,Rain,66
2012-12-12,79,75,70,67,64,61,84,70,56,30.17,30.12,30.06,10,9,3,30,19,36,0.19,6,Rain,58
2012-12-13,79,75,71,68,66,64,84,73,62,30.19,30.16,30.11,10,9,2,27,20,36,0.00,6,Rain-Thunderstorm,62
2012-12-14,78,74,70,68,64,62,84,71,58,30.21,30.16,30.12,10,10,6,31,21,39,0.01,6,Rain,63
2012-12-15,78,74,70,68,65,62,90,74,58,30.18,30.14,30.09,10,10,6,26,19,33,0.01,6,Rain,70
2012-12-16,79,75,71,68,65,61,84,73,62,30.18,30.13,30.08,10,10,3,31,20,37,0.05,6,Rain,64
2012-12-17,77,74,71,67,65,63,84,74,64,30.18,30.14,30.11,10,10,5,31,24,39,0.03,7,Rain,59
2012-12-18,77,73,69,70,67,65,90,82,73,30.15,30.11,30.06,10,8,2,32,19,37,0.17,7,Rain,70
2012-12-19,77,74,71,70,67,64,87,78,69,30.11,30.07,30.01,10,10,7,25,19,31,0.08,7,Rain,63
2012-12-20,77,74,71,66,63,61,84,74,64,30.12,30.07,30.01,10,10,8,25,21,32,T,6,Rain,63
2012-12-21,78,75,71,65,63,61,79,70,60,30.11,30.06,30.02,10,10,10,25,18,31,0.01,5,,71
2012-12-22,77,73,68,65,63,60,78,67,56,30.09,30.04,29.96,10,10,9,22,14,25,0.01,3,,90
2012-12-23,77,72,66,64,63,61,87,76,64,30.04,30.00,29.94,10,10,10,12,6,14,0.00,3,,230
2012-12-24,76,71,66,68,64,59,90,77,64,30.05,30.00,29.95,10,10,10,12,6,13,0.01,3,Rain,318
2012-12-25,77,73,68,70,67,64,90,85,79,30.08,30.04,30.00,10,10,9,16,9,20,0.03,7,Rain,62
2012-12-26,78,76,73,67,65,63,79,72,64,30.09,30.05,29.99,10,10,10,18,15,23,0.00,6,,78
2012-12-27,78,76,73,66,65,63,79,72,64,30.06,30.01,29.95,10,10,10,20,13,25,0.00,6,,89
2012-12-28,78,72,65,66,64,62,93,79,64,30.01,29.97,29.91,10,10,10,16,7,18,0.00,4,,211
2012-12-29,78,72,66,67,64,62,87,74,60,30.06,30.00,29.94,10,10,10,10,5,13,0.00,4,,312
2012-12-30,78,73,67,68,66,64,93,81,69,30.06,30.02,29.96,10,10,6,9,6,10,0.01,4,Rain,298
2012-12-31,80,72,64,66,64,61,93,76,58,30.13,30.05,30.00,10,10,6,21,9,26,T,2,Rain,313